Time;durP1;ratioP1;P1;durP2;ratioP2;P2;SDS_P1;SDS_P2;PMS_P1;PMS_P2;Temp;Humidity;BMP_temperature;BMP_pressure;BME280_temperature;BME280_humidity;BME280_pressure;Samples;Min_cycle;Max_cycle;Signal;HPM_P1;HPM_P2
2022/03/04 00:02:08;;;;;;;20.13;9.43;;;;;;;-4.64;56.82;100043.34;5098199;28;20066;-54
2022/03/04 00:04:43;;;;;;;30.42;9.65;;;;;;;-4.43;56.32;100049.31;5098160;28;20111;-55
2022/03/04 00:07:14;;;;;;;15.45;7.47;;;;;;;-4.23;55.92;100044.16;5097983;28;20060;-55
2022/03/04 00:09:44;;;;;;;17.40;7.97;;;;;;;-4.01;55.80;100058.63;5098078;28;20119;-56
2022/03/04 00:12:15;;;;;;;14.05;6.10;;;;;;;-3.86;55.45;100053.22;5098034;28;20073;-56
2022/03/04 00:14:46;;;;;;;11.27;5.93;;;;;;;-3.70;55.28;100040.22;5098071;28;20219;-55
2022/03/04 00:17:18;;;;;;;13.20;6.47;;;;;;;-3.57;54.85;100032.22;5098217;28;20063;-56
2022/03/04 00:19:49;;;;;;;11.10;6.13;;;;;;;-3.28;54.76;100030.69;5097704;28;20063;-56
2022/03/04 00:22:22;;;;;;;12.10;5.82;;;;;;;-3.31;54.47;99999.06;5097849;28;20081;-56
2022/03/04 00:24:53;;;;;;;8.73;4.47;;;;;;;-2.84;53.96;100030.50;5097800;28;20054;-55
2022/03/04 00:27:24;;;;;;;14.57;4.68;;;;;;;-2.62;53.96;100015.03;5097928;28;20056;-57
2022/03/04 00:29:54;;;;;;;8.77;4.32;;;;;;;-2.32;53.33;100019.41;5097852;28;20417;-56
2022/03/04 00:32:26;;;;;;;7.07;4.28;;;;;;;-1.88;53.25;100007.06;5097735;28;20048;-56
2022/03/04 00:34:57;;;;;;;8.95;4.15;;;;;;;-1.35;53.23;100005.19;5098089;28;20322;-56
2022/03/04 00:37:28;;;;;;;6.13;3.60;;;;;;;-0.96;52.21;100004.47;5098161;28;20082;-57
2022/03/04 00:39:58;;;;;;;6.63;3.33;;;;;;;-0.99;51.51;100003.53;5097920;28;20050;-56
2022/03/04 00:42:29;;;;;;;5.95;2.90;;;;;;;-0.91;51.67;99999.47;5097660;28;20063;-56
2022/03/04 00:45:00;;;;;;;8.73;3.00;;;;;;;-0.70;50.89;100001.69;5097595;28;20078;-55
2022/03/04 00:47:32;;;;;;;4.25;2.80;;;;;;;-0.62;50.84;100005.34;5097711;28;20044;-56
2022/03/04 00:50:04;;;;;;;4.68;2.65;;;;;;;-1.13;50.48;100000.59;5097864;28;20083;-56
2022/03/04 00:52:34;;;;;;;4.85;2.90;;;;;;;-1.11;51.59;100009.22;5097398;28;20374;-56
2022/03/04 00:55:06;;;;;;;9.43;3.83;;;;;;;-0.94;51.36;100002.81;5097580;28;20060;-57
2022/03/04 00:57:36;;;;;;;8.85;4.32;;;;;;;-0.65;50.89;100000.09;5097676;28;20105;-56
2022/03/04 01:00:08;;;;;;;9.52;4.30;;;;;;;-0.54;50.29;99967.88;5097600;28;20422;-56
2022/03/04 01:02:41;;;;;;;5.75;3.58;;;;;;;-0.02;50.49;99997.31;5097451;28;20087;-57
2022/03/04 01:05:11;;;;;;;7.57;3.35;;;;;;;-0.10;49.96;99991.16;5097287;28;20052;-57
2022/03/04 01:07:42;;;;;;;7.88;3.90;;;;;;;-0.18;49.05;99987.53;5097644;28;20086;-56
2022/03/04 01:10:13;;;;;;;7.45;3.42;;;;;;;-0.13;48.76;99993.63;5097379;28;20317;-56
2022/03/04 01:12:45;;;;;;;7.40;4.28;;;;;;;-0.26;49.75;99994.19;5097416;28;20083;-56
2022/03/04 01:15:16;;;;;;;10.80;5.10;;;;;;;-0.47;49.53;99990.31;5097525;28;20294;-56
2022/03/04 01:17:49;;;;;;;11.25;5.57;;;;;;;-0.53;49.85;99954.22;5097313;28;20103;-57
2022/03/04 01:20:19;;;;;;;7.25;4.40;;;;;;;-0.25;50.13;99985.66;5097256;28;20107;-56
2022/03/04 01:22:50;;;;;;;9.35;4.30;;;;;;;-0.38;50.05;99978.50;5097346;28;20098;-56
2022/03/04 01:25:21;;;;;;;9.65;4.25;;;;;;;0.01;50.01;99972.53;5097653;28;20070;-56
2022/03/04 01:27:51;;;;;;;7.25;4.10;;;;;;;0.23;50.34;99964.44;5097224;28;20055;-56
2022/03/04 01:30:22;;;;;;;8.45;4.07;;;;;;;0.49;49.55;99976.94;5097062;28;20339;-56
2022/03/04 01:32:55;;;;;;;11.40;5.50;;;;;;;0.58;48.58;99972.00;5097400;28;20127;-57
2022/03/04 01:35:25;;;;;;;11.30;6.13;;;;;;;0.34;48.95;99962.94;5097468;28;20056;-57
2022/03/04 01:37:56;;;;;;;13.13;7.05;;;;;;;-0.36;48.63;99940.91;5097151;28;20055;-56
2022/03/04 01:40:27;;;;;;;9.88;5.80;;;;;;;-0.16;49.51;99967.88;5097276;28;20052;-56
2022/03/04 01:42:58;;;;;;;13.85;5.65;;;;;;;-0.37;49.91;99970.00;5097271;28;20083;-54
2022/03/04 01:45:29;;;;;;;15.07;6.35;;;;;;;-0.54;49.53;99962.75;5097036;28;20074;-56
2022/03/04 01:48:01;;;;;;;13.00;6.75;;;;;;;-0.56;49.80;99966.13;5097047;28;20079;-55
2022/03/04 01:50:32;;;;;;;14.50;7.10;;;;;;;-0.25;49.60;99959.97;5097300;28;20056;-56
2022/03/04 01:53:02;;;;;;;15.65;7.22;;;;;;;0.13;49.87;99957.38;5098387;28;20048;-56
2022/03/04 01:55:34;;;;;;;16.27;7.35;;;;;;;0.27;49.21;99953.38;5100818;28;20111;-55
2022/03/04 01:58:04;;;;;;;12.05;6.93;;;;;;;0.63;48.34;99949.81;5100912;28;20238;-56
2022/03/04 02:00:35;;;;;;;14.27;7.13;;;;;;;1.08;48.56;99948.88;5100771;28;20063;-56
2022/03/04 02:03:13;;;;;;;10.82;4.60;;;;;;;1.03;46.53;99940.22;5100963;28;20063;-56
2022/03/04 02:05:44;;;;;;;12.45;5.30;;;;;;;1.20;46.16;99936.22;5100276;28;20107;-56
2022/03/04 02:08:15;;;;;;;7.10;2.90;;;;;;;1.37;43.74;99927.88;5100386;28;20052;-55
2022/03/04 02:10:45;;;;;;;4.78;2.28;;;;;;;1.44;41.59;99917.69;5100395;28;20056;-56
2022/03/04 02:13:16;;;;;;;2.50;2.00;;;;;;;1.42;42.34;99921.09;5100158;28;20119;-56
2022/03/04 02:15:47;;;;;;;2.80;1.77;;;;;;;1.25;42.88;99916.56;5100385;28;20083;-56
2022/03/04 02:18:20;;;;;;;4.43;2.22;;;;;;;1.23;42.96;99917.41;5100097;28;20048;-56
2022/03/04 02:20:53;;;;;;;5.25;3.22;;;;;;;1.23;43.35;99920.81;5100180;28;20346;-56
2022/03/04 02:23:25;;;;;;;6.07;1.90;;;;;;;0.86;41.17;99925.34;5100123;28;20036;-57
2022/03/04 02:25:56;;;;;;;6.32;3.22;;;;;;;0.09;41.61;99924.75;5099744;28;20056;-56
2022/03/04 02:28:27;;;;;;;4.13;2.95;;;;;;;-0.45;42.81;99905.63;5099759;28;20368;-55
2022/03/04 02:30:58;;;;;;;5.45;3.00;;;;;;;-0.75;43.25;99908.34;5099920;28;20071;-54
2022/03/04 02:33:29;;;;;;;6.18;2.67;;;;;;;-0.90;44.30;99907.19;5100142;28;20111;-56
2022/03/04 02:36:03;;;;;;;5.40;2.30;;;;;;;-0.46;45.30;99904.75;5100044;28;20361;-56
2022/03/04 02:38:36;;;;;;;3.00;1.95;;;;;;;-0.26;43.46;99902.63;5100230;28;20361;-55
2022/03/04 02:41:06;;;;;;;3.30;2.20;;;;;;;-0.11;43.46;99904.66;5099920;28;20063;-54
2022/03/04 02:43:37;;;;;;;5.70;2.22;;;;;;;0.08;44.11;99902.47;5099850;28;20054;-56
2022/03/04 02:46:08;;;;;;;4.28;1.77;;;;;;;-0.02;41.63;99892.00;5099732;28;20349;-55
2022/03/04 02:48:39;;;;;;;4.18;2.25;;;;;;;-0.55;41.52;99891.75;5099742;28;20373;-55
2022/03/04 02:51:10;;;;;;;2.60;2.05;;;;;;;-0.63;43.17;99900.94;5099766;28;20123;-56
2022/03/04 02:53:42;;;;;;;2.30;1.60;;;;;;;-0.40;41.42;99867.22;5099416;28;20052;-55
2022/03/04 02:56:13;;;;;;;5.88;2.50;;;;;;;-0.10;40.86;99898.69;5099266;28;20259;-56
2022/03/04 02:58:44;;;;;;;3.47;1.88;;;;;;;-0.05;40.41;99891.94;5099634;28;20060;-55
2022/03/04 03:01:15;;;;;;;4.10;1.90;;;;;;;0.43;43.30;99901.44;5099411;28;20115;-57
2022/03/04 03:03:46;;;;;;;5.93;2.65;;;;;;;-0.02;41.03;99899.72;5098960;28;20052;-56
2022/03/04 03:06:17;;;;;;;5.68;2.97;;;;;;;-0.66;42.48;99783.72;5098349;28;20590;-55
2022/03/04 03:08:49;;;;;;;3.13;1.90;;;;;;;0.53;41.42;99886.19;5097805;28;20106;-57
2022/03/04 03:11:20;;;;;;;4.13;2.30;;;;;;;0.18;40.05;99888.97;5098209;28;20051;-57
2022/03/04 03:13:51;;;;;;;4.63;2.10;;;;;;;-0.24;38.75;99907.81;5098035;28;20087;-55
2022/03/04 03:16:21;;;;;;;5.05;2.60;;;;;;;-0.37;41.16;99900.69;5098270;28;20062;-57
2022/03/04 03:18:52;;;;;;;3.58;2.33;;;;;;;-0.34;42.07;99903.31;5091302;28;20380;-55
2022/03/04 03:21:23;;;;;;;3.88;1.98;;;;;;;-0.85;41.40;99821.75;5094971;28;20052;-55
2022/03/04 03:23:55;;;;;;;2.95;1.90;;;;;;;-0.33;41.82;99894.75;5095380;28;20052;-57
2022/03/04 03:26:26;;;;;;;5.32;2.20;;;;;;;-0.44;40.47;99903.09;5092039;28;20115;-54
2022/03/04 03:28:57;;;;;;;3.70;2.13;;;;;;;-0.45;41.66;99905.63;5094375;28;20075;-54
2022/03/04 03:31:27;;;;;;;3.17;2.35;;;;;;;-0.27;42.05;99905.19;5095168;28;20114;-55
2022/03/04 03:33:58;;;;;;;8.52;1.92;;;;;;;-0.13;41.88;99906.31;5093736;28;20059;-56
2022/03/04 03:36:29;;;;;;;4.07;2.00;;;;;;;0.32;41.00;99910.66;5095148;28;20066;-57
2022/03/04 03:39:01;;;;;;;2.95;1.70;;;;;;;0.53;40.13;99906.78;5095239;28;20115;-56
2022/03/04 03:41:32;;;;;;;4.70;1.90;;;;;;;0.16;38.94;99911.19;5094804;28;20108;-57
2022/03/04 03:44:03;;;;;;;4.47;2.08;;;;;;;0.58;38.59;99905.16;5095043;28;20115;-55
2022/03/04 03:46:33;;;;;;;4.93;1.92;;;;;;;0.98;39.30;99910.97;5093984;28;20066;-52
2022/03/04 03:49:05;;;;;;;3.90;2.03;;;;;;;1.29;39.26;99897.75;5094484;28;20066;-55
2022/03/04 03:51:35;;;;;;;4.53;2.33;;;;;;;1.49;38.33;99889.44;5094417;28;20056;-57
2022/03/04 03:54:08;;;;;;;7.57;2.53;;;;;;;1.27;39.60;99832.53;5094624;28;20103;-56
2022/03/04 03:56:38;;;;;;;6.82;2.30;;;;;;;1.57;37.87;99805.44;5094408;28;20046;-56
2022/03/04 03:59:09;;;;;;;4.25;1.90;;;;;;;2.20;36.97;99896.41;5093752;28;20052;-57
2022/03/04 04:01:40;;;;;;;6.40;1.92;;;;;;;2.36;37.07;99892.25;5093852;28;20293;-56
2022/03/04 04:04:11;;;;;;;8.05;2.92;;;;;;;2.55;37.08;99894.19;5092554;28;20060;-58
2022/03/04 04:06:42;;;;;;;4.13;2.53;;;;;;;2.89;37.68;99894.50;5093356;28;20054;-57
2022/03/04 04:09:15;;;;;;;6.75;2.10;;;;;;;3.17;37.60;99899.88;5093944;28;20541;-57
2022/03/04 04:11:45;;;;;;;3.25;2.00;;;;;;;2.81;35.49;99901.31;5093595;28;20385;-54
2022/03/04 04:14:16;;;;;;;4.15;1.70;;;;;;;2.43;35.22;99899.22;5093733;28;20048;-55
2022/03/04 04:16:47;;;;;;;3.50;2.00;;;;;;;2.10;36.63;99900.56;5093014;28;20237;-58
2022/03/04 04:19:17;;;;;;;3.20;1.80;;;;;;;1.48;37.93;99882.59;5093395;28;20114;-56
2022/03/04 04:21:48;;;;;;;3.83;2.20;;;;;;;1.71;39.24;99917.22;5093132;28;20075;-57
2022/03/04 04:24:21;;;;;;;2.45;1.65;;;;;;;1.76;36.18;99913.88;5093096;28;20047;-55
2022/03/04 04:26:51;;;;;;;5.75;2.70;;;;;;;1.47;38.34;99932.31;5093203;28;20063;-57
2022/03/04 04:29:22;;;;;;;5.72;2.38;;;;;;;0.83;38.58;99835.28;5093041;28;20115;-53
2022/03/04 04:31:53;;;;;;;5.65;2.40;;;;;;;1.69;38.06;99934.38;5092756;28;20074;-54
2022/03/04 04:34:23;;;;;;;5.18;2.08;;;;;;;1.95;38.21;99941.63;5093219;28;20304;-54
2022/03/04 04:36:54;;;;;;;2.78;1.80;;;;;;;2.08;38.27;99934.91;5093326;28;20397;-56
2022/03/04 04:39:26;;;;;;;3.50;2.22;;;;;;;2.08;37.52;99940.91;5093304;28;20066;-57
2022/03/04 04:41:57;;;;;;;2.42;1.88;;;;;;;1.69;36.69;99938.66;5093054;28;20066;-56
2022/03/04 04:44:28;;;;;;;7.35;3.95;;;;;;;1.47;37.60;99947.78;5090489;28;20127;-56
2022/03/04 04:46:59;;;;;;;6.72;3.28;;;;;;;1.01;36.33;99944.47;5092990;28;20268;-55
2022/03/04 04:49:30;;;;;;;2.80;1.70;;;;;;;0.75;35.35;99939.75;5092641;28;20123;-56
2022/03/04 04:52:01;;;;;;;7.63;4.00;;;;;;;0.76;37.82;99949.19;5092162;28;20051;-57
2022/03/04 04:54:33;;;;;;;6.78;2.40;;;;;;;0.68;38.83;99907.03;5092235;28;20052;-56
2022/03/04 04:57:05;;;;;;;3.50;2.10;;;;;;;0.99;39.54;99953.88;5090769;28;20048;-57
2022/03/04 04:59:35;;;;;;;2.78;2.05;;;;;;;1.11;39.58;99954.06;5092637;28;20410;-54
2022/03/04 05:02:07;;;;;;;5.78;4.57;;;;;;;1.26;38.17;99949.19;5093596;28;20063;-55
2022/03/04 05:04:38;;;;;;;5.55;1.90;;;;;;;1.12;35.95;99971.25;5093531;28;20059;-57
2022/03/04 05:07:08;;;;;;;4.35;1.88;;;;;;;0.25;34.73;99919.09;5092312;28;20058;-56
2022/03/04 05:09:41;;;;;;;3.75;1.90;;;;;;;0.17;36.82;99951.47;5093526;28;20307;-57
2022/03/04 05:12:12;;;;;;;2.45;1.70;;;;;;;0.05;36.05;99938.34;5093839;28;20174;-56
2022/03/04 05:14:42;;;;;;;3.08;1.90;;;;;;;-0.01;37.40;99959.66;5092945;28;20063;-57
2022/03/04 05:17:13;;;;;;;3.40;2.00;;;;;;;-0.36;39.17;99935.78;5092467;28;20047;-54
2022/03/04 05:19:44;;;;;;;2.58;1.85;;;;;;;-0.06;37.95;99956.13;5093425;28;20139;-57
2022/03/04 05:22:14;;;;;;;2.45;2.25;;;;;;;0.22;37.31;99960.13;5093208;28;20241;-56
2022/03/04 05:24:47;;;;;;;5.88;2.00;;;;;;;0.41;37.89;99967.38;5089303;28;20054;-55
2022/03/04 05:27:18;;;;;;;4.47;1.70;;;;;;;-0.12;37.03;99933.75;5093549;28;20390;-54
2022/03/04 05:29:48;;;;;;;3.10;2.10;;;;;;;-0.25;37.01;99970.25;5096950;28;20148;-55
2022/03/04 05:32:19;;;;;;;2.60;1.90;;;;;;;-0.40;37.67;99969.91;5096029;28;20119;-54
2022/03/04 05:34:50;;;;;;;8.00;2.20;;;;;;;-0.47;39.95;99980.03;5094026;28;20405;-55
2022/03/04 05:37:20;;;;;;;4.28;2.03;;;;;;;-0.46;39.37;99975.78;5096584;28;20146;-55
2022/03/04 05:39:53;;;;;;;3.95;2.17;;;;;;;-0.47;38.83;99972.34;5097131;28;20059;-54
2022/03/04 05:42:24;;;;;;;5.07;2.53;;;;;;;-0.39;40.22;99976.78;5097578;28;20342;-54
2022/03/04 05:44:55;;;;;;;3.22;2.10;;;;;;;-0.26;40.67;99978.78;5096694;28;20054;-55
2022/03/04 05:47:26;;;;;;;3.38;2.03;;;;;;;-0.62;40.73;99933.50;5096019;28;20067;-57
2022/03/04 05:49:57;;;;;;;2.85;1.95;;;;;;;-0.61;40.67;99955.75;5097313;28;20047;-55
2022/03/04 05:52:27;;;;;;;3.33;2.25;;;;;;;-0.73;41.87;99965.72;5096862;28;20054;-55
2022/03/04 05:55:00;;;;;;;5.22;2.70;;;;;;;-0.77;42.51;99975.03;5097070;28;20111;-55
2022/03/04 05:57:30;;;;;;;3.85;2.28;;;;;;;-0.82;43.77;99971.50;5096677;28;20083;-56
2022/03/04 06:00:01;;;;;;;3.20;2.20;;;;;;;-1.11;44.59;99911.78;5096847;28;20048;-56
2022/03/04 06:02:32;;;;;;;4.57;2.10;;;;;;;-0.64;45.37;99968.50;5096790;28;20056;-55
2022/03/04 06:05:03;;;;;;;3.25;2.22;;;;;;;-0.55;44.44;99970.41;5096774;28;20067;-53
2022/03/04 06:07:35;;;;;;;3.95;2.50;;;;;;;-0.49;45.33;99961.16;5096143;28;20107;-55
2022/03/04 06:10:08;;;;;;;4.28;2.53;;;;;;;-0.39;45.87;99977.66;5095048;28;20111;-55
2022/03/04 06:12:39;;;;;;;2.90;2.30;;;;;;;-0.59;46.13;99984.88;5096767;28;20337;-55
2022/03/04 06:15:10;;;;;;;10.20;2.72;;;;;;;-0.94;45.56;99977.19;5096662;28;20119;-55
2022/03/04 06:17:47;;;;;;;6.55;2.88;;;;;;;-1.01;46.16;99975.28;5096464;28;20234;-56
2022/03/04 06:20:18;;;;;;;8.85;4.57;;;;;;;-0.96;47.13;99968.56;5095945;28;20048;-54
2022/03/04 06:22:49;;;;;;;5.63;2.50;;;;;;;-0.82;46.62;99976.63;5096579;28;20123;-54
2022/03/04 06:25:21;;;;;;;8.27;3.45;;;;;;;-0.68;46.40;99974.38;5096539;28;20114;-54
2022/03/04 06:27:56;;;;;;;3.53;2.38;;;;;;;-0.54;45.54;99978.16;5096054;28;20047;-55
2022/03/04 06:30:29;;;;;;;7.22;2.85;;;;;;;-0.39;45.20;99963.94;5096164;28;20047;-51
2022/03/04 06:35:45;;;;;;;5.63;3.75;;;;;;;0.11;46.49;99961.63;5093842;28;20063;-54
2022/03/04 06:38:17;;;;;;;7.68;2.35;;;;;;;0.22;43.04;99967.84;5095747;28;20281;-55
2022/03/04 06:40:50;;;;;;;6.47;2.25;;;;;;;0.34;43.79;99975.78;5095543;28;20058;-55
2022/03/04 06:43:21;;;;;;;2.85;2.28;;;;;;;0.43;45.68;99980.28;5095571;28;20063;-55
2022/03/04 06:45:52;;;;;;;3.72;2.30;;;;;;;0.17;43.89;99990.00;5094481;28;20071;-54
2022/03/04 06:48:23;;;;;;;2.80;2.40;;;;;;;-0.30;43.22;99992.38;5094569;28;20298;-54
2022/03/04 06:50:54;;;;;;;3.03;1.92;;;;;;;-0.66;39.79;99977.84;5094396;28;20123;-58
2022/03/04 06:53:25;;;;;;;3.50;2.05;;;;;;;-1.11;42.30;99978.44;5094937;28;20219;-56
2022/03/04 06:55:57;;;;;;;4.68;1.90;;;;;;;-1.26;43.57;99988.31;5095030;28;20040;-53
2022/03/04 06:58:28;;;;;;;4.40;2.30;;;;;;;-1.32;42.19;99982.19;5095312;28;20075;-54
2022/03/04 07:00:59;;;;;;;3.78;2.20;;;;;;;-1.50;43.30;99988.50;5095092;28;20060;-54
2022/03/04 07:03:30;;;;;;;3.47;2.30;;;;;;;-1.67;44.04;99986.34;5095430;28;20161;-55
2022/03/04 07:06:02;;;;;;;3.33;2.20;;;;;;;-1.75;45.13;99988.69;5095465;28;20082;-55
2022/03/04 07:08:36;;;;;;;3.90;2.30;;;;;;;-1.88;44.95;99986.56;5095231;28;20241;-57
2022/03/04 07:11:08;;;;;;;3.10;2.20;;;;;;;-2.00;45.35;99988.78;5095722;28;20154;-52
2022/03/04 07:13:39;;;;;;;3.92;2.75;;;;;;;-2.31;44.78;99959.69;5095525;28;20127;-53
2022/03/04 07:16:09;;;;;;;4.05;2.50;;;;;;;-2.25;44.21;99990.59;5095547;28;20048;-54
2022/03/04 07:18:40;;;;;;;5.68;2.90;;;;;;;-2.36;44.52;100002.19;5095285;28;20066;-53
2022/03/04 07:21:13;;;;;;;8.32;2.97;;;;;;;-2.39;45.05;99997.00;5095393;28;20047;-52
2022/03/04 07:23:44;;;;;;;6.72;2.40;;;;;;;-2.45;45.42;99996.78;5095479;28;20053;-52
2022/03/04 07:26:18;;;;;;;3.45;2.63;;;;;;;-2.54;46.75;100002.50;5095517;28;20116;-51
2022/03/04 07:28:49;;;;;;;3.63;2.40;;;;;;;-2.64;46.68;100008.13;5094572;28;20051;-53
2022/03/04 07:31:19;;;;;;;4.88;2.83;;;;;;;-2.72;47.37;100002.78;5095181;28;20060;-53
2022/03/04 07:33:50;;;;;;;3.53;2.25;;;;;;;-2.76;47.33;100000.91;5094995;28;20116;-52
2022/03/04 07:36:21;;;;;;;5.45;2.80;;;;;;;-2.88;47.46;100010.75;5094878;28;20086;-50
2022/03/04 07:38:55;;;;;;;5.38;3.10;;;;;;;-2.92;47.04;100021.66;5094758;28;20044;-52
2022/03/04 07:41:27;;;;;;;6.80;3.58;;;;;;;-3.05;47.51;100039.13;5095018;28;20079;-54
2022/03/04 07:43:59;;;;;;;6.65;3.53;;;;;;;-3.18;47.69;100006.31;5095178;28;20087;-53
2022/03/04 07:46:29;;;;;;;9.32;5.55;;;;;;;-3.17;48.15;100012.28;5094890;28;20237;-53
2022/03/04 07:49:00;;;;;;;5.85;3.50;;;;;;;-3.17;47.89;100020.84;5094932;28;20060;-53
2022/03/04 07:51:31;;;;;;;5.82;3.20;;;;;;;-3.27;47.79;100029.00;5094073;28;20085;-51
2022/03/04 07:54:02;;;;;;;8.30;4.55;;;;;;;-3.46;47.64;100032.59;5094526;28;20384;-52
2022/03/04 07:56:34;;;;;;;9.45;4.53;;;;;;;-3.64;48.73;100035.34;5094880;28;20111;-53
2022/03/04 07:59:05;;;;;;;8.15;4.45;;;;;;;-3.78;48.76;100044.16;5094878;28;20069;-52
2022/03/04 08:01:36;;;;;;;5.55;3.80;;;;;;;-3.87;49.35;100051.47;5094687;28;20079;-51
2022/03/04 08:04:09;;;;;;;9.25;3.97;;;;;;;-4.03;49.86;100035.56;5094402;28;20052;-53
2022/03/04 08:06:40;;;;;;;9.00;3.88;;;;;;;-4.14;49.75;100036.84;5094650;28;20334;-52
2022/03/04 08:09:10;;;;;;;7.40;3.38;;;;;;;-4.17;50.19;100072.44;5094218;28;20047;-52
2022/03/04 08:11:46;;;;;;;7.93;3.47;;;;;;;-4.34;50.52;100064.13;5094627;28;20052;-52
2022/03/04 08:14:17;;;;;;;8.60;3.70;;;;;;;-4.37;50.43;100075.09;5094578;28;20071;-51
2022/03/04 08:16:48;;;;;;;7.35;3.30;;;;;;;-5.26;50.23;99949.09;5094516;28;20333;-53
2022/03/04 08:19:18;;;;;;;8.02;3.58;;;;;;;-4.58;50.25;100074.19;5094733;28;20055;-53
2022/03/04 08:21:49;;;;;;;7.40;3.90;;;;;;;-4.65;51.25;100074.75;5092738;28;20063;-53
2022/03/04 08:24:40;;;;;;;7.80;3.55;;;;;;;-4.77;50.68;100083.66;5091231;28;20221;-50
2022/03/04 08:27:12;;;;;;;10.13;4.10;;;;;;;-5.65;50.86;99927.91;5093836;28;20266;-52
2022/03/04 08:29:43;;;;;;;8.15;3.75;;;;;;;-4.71;50.94;100077.06;5093971;28;20287;-50
2022/03/04 08:32:13;;;;;;;18.75;7.53;;;;;;;-4.74;51.61;100076.91;5088478;28;20083;-52
2022/03/04 08:34:44;;;;;;;45.92;16.20;;;;;;;-5.02;51.73;100079.19;5093429;28;20111;-51
2022/03/04 08:37:15;;;;;;;48.22;17.80;;;;;;;-5.28;52.72;100083.13;5094109;28;20334;-54
2022/03/04 08:39:46;;;;;;;25.67;10.57;;;;;;;-5.42;53.06;100079.09;5092994;28;20345;-50
2022/03/04 08:42:18;;;;;;;21.80;8.93;;;;;;;-5.52;53.88;100097.31;5093382;28;20113;-51
2022/03/04 08:44:49;;;;;;;17.13;6.50;;;;;;;-5.54;53.25;100101.47;5094187;28;20480;-54
2022/03/04 08:47:20;;;;;;;10.20;4.18;;;;;;;-5.51;51.93;100109.25;5094378;28;20044;-52
2022/03/04 08:49:51;;;;;;;11.13;5.63;;;;;;;-5.42;52.83;100094.38;5094118;28;20098;-52
2022/03/04 08:52:21;;;;;;;9.43;4.85;;;;;;;-5.37;53.29;100102.22;5093977;28;20071;-54
2022/03/04 08:54:52;;;;;;;5.60;3.13;;;;;;;-5.45;52.59;100094.25;5091587;28;20115;-52
2022/03/04 08:57:24;;;;;;;5.43;3.00;;;;;;;-5.57;52.59;100088.59;5093667;28;20115;-51
2022/03/04 08:59:55;;;;;;;5.22;3.10;;;;;;;-5.69;52.24;100105.06;5093934;28;20048;-53
2022/03/04 09:02:26;;;;;;;4.13;2.80;;;;;;;-5.75;52.85;100109.00;5095858;28;20056;-51
2022/03/04 09:04:57;;;;;;;6.00;3.38;;;;;;;-5.91;52.93;100102.34;5098284;28;20139;-51
2022/03/04 09:07:27;;;;;;;18.60;10.65;;;;;;;-6.09;52.97;100108.34;5097965;28;20054;-50
2022/03/04 09:09:58;;;;;;;28.23;15.80;;;;;;;-6.26;53.01;100113.38;5098191;28;20306;-49
2022/03/04 09:12:30;;;;;;;16.92;7.97;;;;;;;-6.58;53.89;100116.13;5095026;28;20060;-53
2022/03/04 09:15:01;;;;;;;5.93;3.80;;;;;;;-6.89;55.13;100107.75;5096346;28;20357;-49
2022/03/04 09:17:32;;;;;;;6.65;3.95;;;;;;;-7.12;55.56;100104.91;5098007;28;20111;-54
2022/03/04 09:20:03;;;;;;;3.72;2.90;;;;;;;-7.28;56.44;100113.41;5093073;28;20142;-50
2022/03/04 09:22:33;;;;;;;5.40;3.50;;;;;;;-7.45;56.55;100109.97;5097242;28;20079;-50
2022/03/04 09:25:04;;;;;;;6.05;2.92;;;;;;;-7.77;57.74;100109.91;5097809;28;20115;-48
2022/03/04 09:27:37;;;;;;;7.68;4.43;;;;;;;-8.16;58.27;100094.25;5092884;28;20427;-49
2022/03/04 09:30:08;;;;;;;77.93;28.08;;;;;;;-8.25;59.42;100119.97;5097224;28;20055;-51
2022/03/04 09:32:40;;;;;;;190.25;58.25;;;;;;;-8.29;60.80;100118.03;5093210;28;20253;-51
2022/03/04 09:35:11;;;;;;;56.65;18.77;;;;;;;-8.29;60.67;100116.38;5097024;28;20276;-50
2022/03/04 09:37:42;;;;;;;14.45;6.95;;;;;;;-8.37;61.14;100094.81;5097158;28;20059;-51
2022/03/04 09:40:13;;;;;;;6.22;3.53;;;;;;;-8.14;61.02;100125.63;5095301;28;20048;-50
2022/03/04 09:42:45;;;;;;;8.68;4.15;;;;;;;-8.08;61.06;100123.47;5096452;28;20083;-49
2022/03/04 09:45:16;;;;;;;36.38;12.23;;;;;;;-8.06;61.03;100126.97;5095449;28;20044;-51
2022/03/04 09:47:48;;;;;;;88.30;22.98;;;;;;;-8.61;61.37;100032.66;5097386;28;20051;-50
2022/03/04 09:50:19;;;;;;;7.88;4.25;;;;;;;-8.09;61.63;100116.63;5096513;28;20044;-52
2022/03/04 09:52:50;;;;;;;16.40;8.35;;;;;;;-8.10;61.62;100112.34;5097173;28;20337;-49
2022/03/04 09:55:25;;;;;;;15.27;8.63;;;;;;;-8.12;61.35;100121.53;5096924;28;20060;-52
2022/03/04 09:57:57;;;;;;;66.57;26.13;;;;;;;-8.20;61.66;100112.63;5095943;28;20054;-51
2022/03/04 10:00:28;;;;;;;38.08;13.77;;;;;;;-8.28;62.25;100100.41;5096544;28;20060;-50
2022/03/04 10:02:59;;;;;;;254.77;63.38;;;;;;;-8.45;62.42;100091.00;5096436;28;20052;-49
2022/03/04 10:05:30;;;;;;;202.48;47.03;;;;;;;-8.30;62.62;100117.19;5096686;28;20097;-49
2022/03/04 10:08:00;;;;;;;131.32;32.45;;;;;;;-8.35;62.83;100120.25;5095954;28;20048;-50
2022/03/04 10:10:31;;;;;;;124.28;32.42;;;;;;;-8.39;62.98;100121.72;5096633;28;20055;-50
2022/03/04 10:13:03;;;;;;;40.50;14.32;;;;;;;-8.44;63.39;100122.28;5096183;28;20075;-49
2022/03/04 10:15:34;;;;;;;21.13;7.97;;;;;;;-8.43;63.46;100119.84;5095950;28;20119;-50
2022/03/04 10:18:06;;;;;;;65.55;18.77;;;;;;;-8.43;63.32;100114.78;5096411;28;20052;-50
2022/03/04 10:20:44;;;;;;;51.70;15.27;;;;;;;-8.48;62.95;100100.97;5095993;28;20269;-54
2022/03/04 10:23:18;;;;;;;72.57;20.23;;;;;;;-8.74;62.95;100066.56;5096332;28;20087;-51
2022/03/04 10:25:51;;;;;;;46.58;13.13;;;;;;;-8.59;62.96;100119.75;5096712;28;20115;-52
2022/03/04 10:28:25;;;;;;;19.27;7.57;;;;;;;-8.71;63.20;100115.75;5096333;28;20071;-53
2022/03/04 10:30:57;;;;;;;155.75;41.05;;;;;;;-8.83;63.61;100104.03;5096318;28;20062;-53
2022/03/04 10:33:47;;;;;;;80.03;26.40;;;;;;;-8.80;63.83;100112.66;5092339;28;20067;-52
2022/03/04 10:36:18;;;;;;;72.05;21.88;;;;;;;-8.82;63.88;100111.69;5092994;28;20226;-53
2022/03/04 10:39:09;;;;;;;109.25;30.95;;;;;;;-8.90;63.74;100100.25;5095740;28;20237;-51
2022/03/04 10:41:51;;;;;;;75.68;23.85;;;;;;;-8.87;64.11;100104.63;5092997;28;20093;-53
2022/03/04 10:44:31;;;;;;;58.45;23.65;;;;;;;-8.91;64.27;100108.63;5095377;28;20365;-52
2022/03/04 10:47:01;;;;;;;17.80;7.68;;;;;;;-8.97;64.36;100109.13;5096061;28;20110;-48
2022/03/04 10:49:32;;;;;;;11.73;6.82;;;;;;;-9.00;64.54;100108.09;5094050;28;20051;-50
2022/03/04 10:52:10;;;;;;;9.40;5.05;;;;;;;-9.01;64.64;100106.34;5096043;28;20052;-52
2022/03/04 10:54:51;;;;;;;5.68;4.00;;;;;;;-9.03;64.83;100113.00;5095888;28;20094;-53
2022/03/04 10:57:21;;;;;;;6.22;4.10;;;;;;;-9.04;64.67;100111.22;5094398;28;20052;-50
2022/03/04 11:00:00;;;;;;;6.38;3.70;;;;;;;-9.11;64.72;100109.97;5095919;28;20243;-50
2022/03/04 11:02:45;;;;;;;5.55;3.53;;;;;;;-9.14;64.53;100110.66;5093478;28;20052;-53
2022/03/04 11:05:16;;;;;;;5.30;3.70;;;;;;;-9.06;64.54;100102.66;5095832;28;20054;-50
2022/03/04 11:07:47;;;;;;;9.25;3.70;;;;;;;-9.00;64.69;100108.09;5093748;28;20737;-51
2022/03/04 11:10:20;;;;;;;10.48;5.63;;;;;;;-9.03;63.73;100097.81;5095216;28;20048;-50
2022/03/04 11:12:55;;;;;;;11.20;5.13;;;;;;;-9.34;63.13;100096.81;5094454;28;20090;-53
2022/03/04 11:15:27;;;;;;;12.50;6.18;;;;;;;-9.63;62.91;100067.28;5094772;28;20054;-50
2022/03/04 11:17:58;;;;;;;12.68;5.70;;;;;;;-9.67;62.87;100105.78;5095053;28;20044;-49
2022/03/04 11:20:29;;;;;;;19.90;8.05;;;;;;;-9.93;63.39;100105.81;5094929;28;20567;-49
2022/03/04 11:23:06;;;;;;;19.52;7.15;;;;;;;-10.03;64.79;100100.22;5095301;28;20097;-50
2022/03/04 11:25:38;;;;;;;11.02;6.28;;;;;;;-10.38;64.96;100036.50;5094895;28;20044;-50
2022/03/04 11:28:14;;;;;;;14.05;6.80;;;;;;;-9.92;65.20;100097.47;5095141;28;20346;-52
2022/03/04 11:30:48;;;;;;;14.20;6.68;;;;;;;-9.74;65.16;100102.78;5094891;28;20059;-51
2022/03/04 11:33:21;;;;;;;11.07;6.43;;;;;;;-9.56;65.51;100094.69;5095201;28;20058;-50
2022/03/04 11:35:59;;;;;;;15.07;7.68;;;;;;;-9.45;64.75;100077.63;5094949;28;20115;-51
2022/03/04 11:38:58;;;;;;;13.63;7.70;;;;;;;-9.24;64.63;100108.38;5095108;28;20060;-52
2022/03/04 11:42:03;;;;;;;15.07;5.43;;;;;;;-9.61;63.92;100065.72;5093931;28;20094;-48
2022/03/04 11:44:34;;;;;;;9.70;5.40;;;;;;;-9.65;63.42;100109.28;5091907;28;20067;-49
2022/03/04 11:47:10;;;;;;;16.85;8.98;;;;;;;-9.77;63.98;100113.59;5094954;28;20052;-49
2022/03/04 11:49:47;;;;;;;11.45;6.60;;;;;;;-9.83;64.28;100108.19;5093483;28;20083;-49
2022/03/04 11:52:29;;;;;;;9.18;5.18;;;;;;;-9.91;64.56;100064.69;5094982;28;20059;-47
2022/03/04 11:55:27;;;;;;;4.63;3.53;;;;;;;-9.68;64.67;100114.16;5094294;28;20123;-48